Time;durP1;ratioP1;P1;durP2;ratioP2;P2;SDS_P1;SDS_P2;PMS_P1;PMS_P2;Temp;Humidity;BMP_temperature;BMP_pressure;BME280_temperature;BME280_humidity;BME280_pressure;Samples;Min_cycle;Max_cycle;Signal;HPM_P1;HPM_P2
2023/04/13 00:01:39;;;;;;;;;;;;;;;11.12;50.22;98895.66;4398275;32;33149;-84
2023/04/13 00:04:08;;;;;;;;;;;;;;;11.39;48.75;98893.97;4414216;32;33726;-85
2023/04/13 00:06:37;;;;;;;;;;;;;;;11.40;48.49;98890.41;4401652;32;33330;-84
2023/04/13 00:09:05;;;;;;;;;;;;;;;11.42;48.50;98888.50;4401195;32;36826;-84
2023/04/13 00:11:33;;;;;;;;;;;;;;;11.48;48.35;98888.13;4404589;32;33895;-84
2023/04/13 00:14:00;;;;;;;;;;;;;;;11.29;49.53;98890.19;4388061;32;33219;-85
2023/04/13 00:16:30;;;;;;;;;;;;;;;11.12;50.68;98885.09;4401610;32;33026;-85
2023/04/13 00:18:58;;;;;;;;;;;;;;;11.22;50.51;98880.97;4411685;32;34245;-85
2023/04/13 00:21:26;;;;;;;;;;;;;;;11.27;50.43;98877.09;4405699;32;33023;-85
2023/04/13 00:23:55;;;;;;;;;;;;;;;11.23;50.69;98883.50;4393497;32;33117;-84
2023/04/13 00:26:24;;;;;;;;;;;;;;;11.45;49.69;98877.75;4393717;32;31667;-85
2023/04/13 00:28:53;;;;;;;;;;;;;;;11.38;49.61;98876.41;4381232;32;32978;-85
2023/04/13 00:31:22;;;;;;;;;;;;;;;11.34;49.65;98879.34;4394060;32;34927;-85
2023/04/13 00:33:50;;;;;;;;;;;;;;;11.12;50.92;98879.81;4406694;32;36616;-85
2023/04/13 00:36:17;;;;;;;;;;;;;;;11.40;50.12;98868.41;4393106;32;33712;-86
2023/04/13 00:38:46;;;;;;;;;;;;;;;11.26;50.39;98871.91;4406115;32;33792;-85
2023/04/13 00:41:15;;;;;;;;;;;;;;;11.26;50.92;98877.19;4394185;32;35039;-86
2023/04/13 00:43:43;;;;;;;;;;;;;;;11.36;50.33;98874.84;4379609;32;33466;-85
2023/04/13 00:46:15;;;;;;;;;;;;;;;11.44;49.71;98869.91;4390605;32;32560;-85
2023/04/13 00:48:44;;;;;;;;;;;;;;;11.41;49.96;98864.81;4384031;32;34134;-84
2023/04/13 00:51:12;;;;;;;;;;;;;;;11.48;49.68;98871.41;4386595;32;33939;-82
2023/04/13 00:53:41;;;;;;;;;;;;;;;11.40;50.84;98869.25;4378945;32;33813;-82
2023/04/13 00:56:09;;;;;;;;;;;;;;;11.56;50.34;98881.53;4391694;32;32445;-82
2023/04/13 00:58:37;;;;;;;;;;;;;;;11.68;50.23;98878.09;4379961;32;32824;-82
2023/04/13 01:01:04;;;;;;;;;;;;;;;11.57;50.92;98875.28;4404613;32;32486;-82
2023/04/13 01:03:33;;;;;;;;;;;;;;;11.60;50.82;98875.09;4392699;32;33012;-84
2023/04/13 01:06:06;;;;;;;;;;;;;;;11.70;50.49;98871.78;4405868;32;33263;-84
2023/04/13 01:08:38;;;;;;;;;;;;;;;11.70;50.17;98878.84;4394180;32;34197;-84
2023/04/13 01:11:10;;;;;;;;;;;;;;;11.63;50.32;98873.13;4405739;32;33304;-85
2023/04/13 01:13:54;;;;;;;;;;;;;;;11.76;50.09;98875.81;4405831;32;33853;-85
2023/04/13 01:16:26;;;;;;;;;;;;;;;11.70;50.88;98865.63;4405713;32;33213;-84
2023/04/13 01:18:55;;;;;;;;;;;;;;;11.72;51.04;98863.72;4393708;32;32471;-85
2023/04/13 01:21:24;;;;;;;;;;;;;;;11.81;50.18;98871.09;4406143;32;34146;-83
2023/04/13 01:23:59;;;;;;;;;;;;;;;11.84;49.98;98859.50;4393141;32;34109;-83
2023/04/13 01:26:32;;;;;;;;;;;;;;;11.86;49.75;98858.44;4393331;32;33224;-83
2023/04/13 01:28:59;;;;;;;;;;;;;;;11.72;50.49;98863.72;4406251;32;34166;-85
2023/04/13 01:31:28;;;;;;;;;;;;;;;11.84;50.49;98856.88;4379991;32;34661;-84
2023/04/13 01:33:56;;;;;;;;;;;;;;;11.83;50.49;98856.03;4381104;32;33015;-84
2023/04/13 01:36:24;;;;;;;;;;;;;;;11.90;50.19;98857.31;4380076;32;33089;-85
2023/04/13 01:38:52;;;;;;;;;;;;;;;11.82;50.53;98854.31;4404776;32;33583;-85
2023/04/13 01:41:20;;;;;;;;;;;;;;;11.80;50.43;98851.72;4393443;32;33127;-85
2023/04/13 01:43:49;;;;;;;;;;;;;;;11.61;50.69;98861.78;4406096;32;33687;-84
2023/04/13 01:46:18;;;;;;;;;;;;;;;11.85;50.28;98858.56;4406305;32;32987;-84
2023/04/13 01:48:48;;;;;;;;;;;;;;;11.82;50.57;98864.00;4394066;32;32501;-85
2023/04/13 01:51:19;;;;;;;;;;;;;;;11.96;50.01;98864.87;4380069;32;33008;-84
2023/04/13 01:54:10;;;;;;;;;;;;;;;11.89;50.07;98863.56;4392965;32;34103;-84
2023/04/13 01:56:38;;;;;;;;;;;;;;;11.87;50.21;98868.09;4392278;32;33736;-84
2023/04/13 01:59:06;;;;;;;;;;;;;;;11.85;50.31;98863.84;4405271;32;32724;-84
2023/04/13 02:01:39;;;;;;;;;;;;;;;11.93;50.43;98865.06;4368517;32;33858;-85
2023/04/13 02:04:08;;;;;;;;;;;;;;;11.93;50.77;98866.84;4393147;32;33076;-84
2023/04/13 02:06:36;;;;;;;;;;;;;;;11.73;51.74;98870.75;4393505;32;32203;-84
2023/04/13 02:09:05;;;;;;;;;;;;;;;11.84;51.29;98865.66;4406042;32;32844;-84
2023/04/13 02:11:34;;;;;;;;;;;;;;;11.97;50.73;98861.28;4392669;32;34226;-84
2023/04/13 02:14:02;;;;;;;;;;;;;;;12.00;50.72;98860.22;4406066;32;34026;-84
2023/04/13 02:16:31;;;;;;;;;;;;;;;11.84;51.21;98860.34;4380129;32;34334;-85
2023/04/13 02:19:00;;;;;;;;;;;;;;;11.77;51.20;98866.94;4407759;32;33590;-84
2023/04/13 02:21:30;;;;;;;;;;;;;;;11.70;51.52;98870.94;4415074;32;33982;-84
2023/04/13 02:23:58;;;;;;;;;;;;;;;11.83;51.31;98866.59;4388360;32;32782;-84
2023/04/13 02:26:26;;;;;;;;;;;;;;;11.82;51.50;98866.66;4415031;32;32072;-85
2023/04/13 02:28:55;;;;;;;;;;;;;;;11.89;51.39;98868.00;4391378;32;33942;-84
2023/04/13 02:31:23;;;;;;;;;;;;;;;12.01;51.12;98861.91;4412760;32;33136;-83
2023/04/13 02:33:54;;;;;;;;;;;;;;;11.83;51.90;98860.47;4385638;32;32801;-84
2023/04/13 02:36:24;;;;;;;;;;;;;;;11.87;52.12;98867.22;4399555;32;33012;-84
2023/04/13 02:38:53;;;;;;;;;;;;;;;12.06;51.47;98859.84;4402707;32;33994;-85
2023/04/13 02:41:22;;;;;;;;;;;;;;;12.05;51.26;98848.38;4398286;32;35598;-84
2023/04/13 02:43:51;;;;;;;;;;;;;;;11.93;51.25;98862.41;4387674;32;32747;-84
2023/04/13 02:46:20;;;;;;;;;;;;;;;11.82;51.30;98853.41;4386499;32;32845;-84
2023/04/13 02:48:50;;;;;;;;;;;;;;;11.78;51.71;98855.44;4390015;32;32363;-84
2023/04/13 02:51:19;;;;;;;;;;;;;;;12.02;51.29;98853.88;4400167;32;35107;-84
2023/04/13 02:53:47;;;;;;;;;;;;;;;12.19;50.58;98854.56;4412463;32;34290;-84
2023/04/13 02:56:15;;;;;;;;;;;;;;;12.09;50.47;98850.84;4398542;32;32938;-84
2023/04/13 02:58:46;;;;;;;;;;;;;;;12.12;50.39;98850.66;4398820;32;33851;-84
2023/04/13 03:01:16;;;;;;;;;;;;;;;12.18;50.26;98852.88;4392702;32;34341;-84
2023/04/13 03:03:46;;;;;;;;;;;;;;;11.99;51.44;98855.88;4393800;32;32898;-84
2023/04/13 03:06:16;;;;;;;;;;;;;;;11.97;51.46;98857.78;4387461;32;32757;-84
2023/04/13 03:08:45;;;;;;;;;;;;;;;12.13;50.91;98862.91;4399633;32;33461;-84
2023/04/13 03:11:13;;;;;;;;;;;;;;;12.07;50.90;98852.75;4390568;32;33945;-85
2023/04/13 03:13:42;;;;;;;;;;;;;;;12.40;47.49;98854.97;4414638;32;33859;-85
2023/04/13 03:16:16;;;;;;;;;;;;;;;12.28;47.35;98851.31;4414541;32;33210;-85
2023/04/13 03:18:50;;;;;;;;;;;;;;;12.15;48.27;98855.72;4400525;32;33232;-86
2023/04/13 03:21:19;;;;;;;;;;;;;;;12.01;49.23;98856.59;4401845;32;32754;-85
2023/04/13 03:23:48;;;;;;;;;;;;;;;12.01;48.01;98859.25;4398011;32;33210;-85
2023/04/13 03:26:18;;;;;;;;;;;;;;;11.99;47.90;98859.38;4401020;32;32985;-85
2023/04/13 03:28:47;;;;;;;;;;;;;;;12.15;47.29;98855.72;4398622;32;33916;-85
2023/04/13 03:31:16;;;;;;;;;;;;;;;12.10;45.78;98856.00;4412056;32;34297;-85
2023/04/13 03:33:47;;;;;;;;;;;;;;;12.21;45.00;98853.53;4400335;32;33059;-85
2023/04/13 03:36:15;;;;;;;;;;;;;;;12.14;44.77;98849.59;4410238;32;32262;-84
2023/04/13 03:38:43;;;;;;;;;;;;;;;12.15;45.57;98840.69;4399086;32;33511;-84
2023/04/13 03:41:11;;;;;;;;;;;;;;;12.15;45.24;98850.44;4403332;32;34705;-84
2023/04/13 03:43:40;;;;;;;;;;;;;;;12.26;44.56;98848.78;4414192;32;34515;-84
2023/04/13 03:46:08;;;;;;;;;;;;;;;12.20;44.86;98845.69;4400878;32;32958;-84
2023/04/13 03:48:36;;;;;;;;;;;;;;;12.03;44.75;98846.78;4402043;32;35848;-84
2023/04/13 03:51:11;;;;;;;;;;;;;;;12.32;43.89;98836.94;4402855;32;33998;-84
2023/04/13 03:53:41;;;;;;;;;;;;;;;12.33;43.12;98838.62;4403300;32;33610;-84
2023/04/13 03:56:09;;;;;;;;;;;;;;;12.32;42.97;98842.25;4389144;32;33116;-84
2023/04/13 03:58:38;;;;;;;;;;;;;;;12.32;43.08;98836.94;4389057;32;34035;-84
2023/04/13 04:01:09;;;;;;;;;;;;;;;12.36;42.74;98838.44;4399242;32;34981;-83
2023/04/13 04:03:38;;;;;;;;;;;;;;;12.36;42.87;98838.44;4401848;32;34162;-84
2023/04/13 04:08:48;;;;;;;;;;;;;;;12.33;42.27;98845.72;4414973;32;34988;-83
2023/04/13 04:11:18;;;;;;;;;;;;;;;12.31;42.47;98845.84;4390286;32;32932;-83
2023/04/13 04:13:49;;;;;;;;;;;;;;;12.17;42.58;98853.84;4403687;32;33381;-83
2023/04/13 04:16:17;;;;;;;;;;;;;;;12.35;42.97;98855.28;4414005;32;32044;-83
2023/04/13 04:18:50;;;;;;;;;;;;;;;12.09;43.93;98842.91;4392032;32;34412;-83
2023/04/13 04:21:20;;;;;;;;;;;;;;;12.21;42.65;98852.69;4403725;32;34539;-83
2023/04/13 04:23:50;;;;;;;;;;;;;;;12.12;43.95;98850.66;4401227;32;32988;-83
2023/04/13 04:26:24;;;;;;;;;;;;;;;12.14;43.84;98848.72;4398399;32;32950;-83
2023/04/13 04:29:00;;;;;;;;;;;;;;;12.15;43.14;98850.44;4399121;32;33872;-83
2023/04/13 04:31:33;;;;;;;;;;;;;;;12.32;42.46;98850.19;4391144;32;33019;-83
2023/04/13 04:34:05;;;;;;;;;;;;;;;12.29;42.70;98856.50;4403437;32;33710;-84
2023/04/13 04:36:40;;;;;;;;;;;;;;;12.27;42.38;98854.94;4395539;32;32007;-83
2023/04/13 04:39:08;;;;;;;;;;;;;;;12.40;42.16;98855.81;4401970;32;34444;-82
2023/04/13 04:41:38;;;;;;;;;;;;;;;12.29;42.45;98858.31;4405141;32;34189;-84
2023/04/13 04:44:07;;;;;;;;;;;;;;;12.24;42.72;98865.72;4413500;32;35047;-84
2023/04/13 04:46:37;;;;;;;;;;;;;;;12.43;42.37;98855.59;4390945;32;31983;-84
2023/04/13 04:49:09;;;;;;;;;;;;;;;12.37;41.96;98858.66;4414767;32;34506;-84
2023/04/13 04:51:40;;;;;;;;;;;;;;;12.41;42.06;98856.69;4386861;32;33258;-83
2023/04/13 04:54:11;;;;;;;;;;;;;;;12.47;41.62;98864.19;4402697;32;34565;-83
2023/04/13 04:56:40;;;;;;;;;;;;;;;12.56;41.00;98869.72;4404502;32;33785;-83
2023/04/13 04:59:09;;;;;;;;;;;;;;;12.47;40.86;98867.69;4400076;32;33093;-84
2023/04/13 05:01:48;;;;;;;;;;;;;;;12.54;39.99;98863.69;4400314;32;33396;-83
2023/04/13 05:04:19;;;;;;;;;;;;;;;12.41;40.31;98854.88;4407823;32;34082;-82
2023/04/13 05:06:51;;;;;;;;;;;;;;;12.48;40.49;98848.19;4396204;32;31878;-84
2023/04/13 05:09:27;;;;;;;;;;;;;;;12.42;41.52;98859.22;4404860;32;34859;-84
2023/04/13 05:12:03;;;;;;;;;;;;;;;12.25;41.24;98864.78;4394983;32;34201;-83
2023/04/13 05:14:32;;;;;;;;;;;;;;;12.38;41.12;98856.88;4409276;32;33630;-83
2023/04/13 05:17:08;;;;;;;;;;;;;;;12.57;40.74;98852.03;4394785;32;30184;-83
2023/04/13 05:19:39;;;;;;;;;;;;;;;12.47;40.23;98861.56;4395972;32;32886;-83
2023/04/13 05:22:10;;;;;;;;;;;;;;;12.52;39.79;98870.88;4393464;32;33371;-83
2023/04/13 05:24:39;;;;;;;;;;;;;;;12.59;39.69;98873.16;4409267;32;33881;-83
2023/04/13 05:27:10;;;;;;;;;;;;;;;12.76;39.37;98867.53;4380341;32;33669;-83
2023/04/13 05:29:41;;;;;;;;;;;;;;;12.58;40.38;98874.94;4393181;32;34204;-84
2023/04/13 05:32:22;;;;;;;;;;;;;;;12.60;40.06;98877.47;4395921;32;37355;-85
2023/04/13 05:34:54;;;;;;;;;;;;;;;12.90;39.54;98877.22;4409698;32;33380;-85
2023/04/13 05:37:23;;;;;;;;;;;;;;;13.39;38.71;98872.06;4396143;32;33303;-84
2023/04/13 05:39:51;;;;;;;;;;;;;;;13.22;39.04;98864.44;4396478;32;33669;-85
2023/04/13 05:42:23;;;;;;;;;;;;;;;13.37;38.62;98868.66;4398443;32;33281;-84
2023/04/13 05:44:52;;;;;;;;;;;;;;;13.30;39.00;98867.41;4387038;32;32362;-85
2023/04/13 05:47:26;;;;;;;;;;;;;;;13.58;37.90;98863.69;4412546;32;33432;-85
2023/04/13 05:49:59;;;;;;;;;;;;;;;13.62;38.25;98866.94;4387379;32;33812;-85
2023/04/13 05:52:27;;;;;;;;;;;;;;;13.57;37.64;98868.09;4415390;32;34756;-85
2023/04/13 05:55:01;;;;;;;;;;;;;;;13.99;37.19;98865.16;4398645;32;34110;-85
2023/04/13 05:57:30;;;;;;;;;;;;;;;14.08;36.32;98849.41;4394356;32;32989;-85
2023/04/13 06:00:00;;;;;;;;;;;;;;;13.41;38.76;98864.00;4400780;32;34155;-85
2023/04/13 06:02:30;;;;;;;;;;;;;;;13.87;38.07;98856.28;4395668;32;33991;-85
2023/04/13 06:04:58;;;;;;;;;;;;;;;13.36;40.27;98866.97;4392708;32;33251;-85
2023/04/13 06:07:26;;;;;;;;;;;;;;;13.33;39.30;98867.19;4383378;32;30359;-87
2023/04/13 06:09:54;;;;;;;;;;;;;;;13.60;38.40;98858.25;4407318;32;35126;-86
2023/04/13 06:12:22;;;;;;;;;;;;;;;13.65;38.33;98872.03;4384544;32;33111;-84
2023/04/13 06:14:55;;;;;;;;;;;;;;;13.81;37.36;98859.34;4397398;32;34473;-84
2023/04/13 06:17:27;;;;;;;;;;;;;;;13.65;38.14;98861.41;4394705;32;33482;-84
2023/04/13 06:19:56;;;;;;;;;;;;;;;13.78;37.77;98856.94;4379781;32;32763;-84
2023/04/13 06:22:27;;;;;;;;;;;;;;;13.60;38.44;98864.41;4380831;32;32250;-84
2023/04/13 06:24:55;;;;;;;;;;;;;;;13.85;38.45;98863.50;4382121;32;33505;-84
2023/04/13 06:27:22;;;;;;;;;;;;;;;13.63;38.19;98868.66;4395323;32;33781;-84
2023/04/13 06:29:50;;;;;;;;;;;;;;;13.82;38.11;98869.88;4373050;32;32281;-83
2023/04/13 06:32:20;;;;;;;;;;;;;;;13.78;37.62;98864.91;4383446;32;33751;-84
2023/04/13 06:34:50;;;;;;;;;;;;;;;14.01;36.95;98861.44;4385538;32;34337;-84
2023/04/13 06:37:19;;;;;;;;;;;;;;;14.24;36.68;98866.84;4382704;32;33275;-84
2023/04/13 06:39:48;;;;;;;;;;;;;;;14.18;35.80;98869.97;4383376;32;30887;-84
2023/04/13 06:42:18;;;;;;;;;;;;;;;14.25;36.15;98873.87;4384322;32;33869;-83
2023/04/13 06:44:47;;;;;;;;;;;;;;;14.55;34.63;98866.31;4375766;32;33694;-83
2023/04/13 06:47:16;;;;;;;;;;;;;;;14.60;34.92;98865.97;4370796;32;31974;-84
2023/04/13 06:49:46;;;;;;;;;;;;;;;14.50;35.30;98875.59;4385279;32;33308;-84
2023/04/13 06:52:15;;;;;;;;;;;;;;;14.64;35.65;98877.22;4358842;32;33161;-83
2023/04/13 06:54:42;;;;;;;;;;;;;;;14.86;35.22;98877.31;4379501;32;34132;-84
2023/04/13 06:57:13;;;;;;;;;;;;;;;14.84;35.04;98876.56;4379794;32;32037;-85
2023/04/13 06:59:42;;;;;;;;;;;;;;;15.01;34.89;98872.63;4371867;32;33248;-84
2023/04/13 07:02:10;;;;;;;;;;;;;;;14.96;34.95;98872.97;4397625;32;33851;-83
2023/04/13 07:04:40;;;;;;;;;;;;;;;15.02;34.90;98872.50;4384430;32;32947;-83
2023/04/13 07:07:11;;;;;;;;;;;;;;;14.96;35.07;98877.44;4372622;32;32484;-83
2023/04/13 07:09:45;;;;;;;;;;;;;;;14.93;34.74;98883.00;4398217;32;33740;-84
2023/04/13 07:12:15;;;;;;;;;;;;;;;14.91;35.42;98885.78;4398432;32;34263;-84
2023/04/13 07:14:48;;;;;;;;;;;;;;;15.01;35.25;98881.44;4388741;32;35040;-84
2023/04/13 07:17:17;;;;;;;;;;;;;;;15.20;34.82;98886.19;4389242;32;32695;-83
2023/04/13 07:19:48;;;;;;;;;;;;;;;15.24;35.37;98889.44;4382028;32;32951;-83
2023/04/13 07:22:21;;;;;;;;;;;;;;;15.27;35.64;98892.72;4402814;32;33724;-84
2023/04/13 07:24:50;;;;;;;;;;;;;;;15.28;34.83;98893.56;4403374;32;34010;-83
2023/04/13 07:27:21;;;;;;;;;;;;;;;14.58;36.35;98895.31;4415242;32;32469;-83
2023/04/13 07:29:53;;;;;;;;;;;;;;;14.90;35.99;98889.38;4404256;32;32951;-84
2023/04/13 07:32:21;;;;;;;;;;;;;;;15.38;36.02;98891.88;4396811;32;33223;-84
2023/04/13 07:35:01;;;;;;;;;;;;;;;15.40;35.40;98891.78;4414583;32;33727;-83
2023/04/13 07:37:30;;;;;;;;;;;;;;;15.33;35.70;98883.41;4386040;32;33078;-83
2023/04/13 07:39:57;;;;;;;;;;;;;;;15.78;35.00;98886.13;4402838;32;32795;-84
2023/04/13 07:42:35;;;;;;;;;;;;;;;15.64;35.92;98891.69;4399186;32;34971;-83
2023/04/13 07:45:09;;;;;;;;;;;;;;;15.73;35.39;98893.63;4400890;32;33293;-84
2023/04/13 07:47:38;;;;;;;;;;;;;;;15.59;35.15;98884.88;4397010;32;32067;-85
2023/04/13 07:50:10;;;;;;;;;;;;;;;15.83;35.89;98884.78;4388863;32;32930;-87
2023/04/13 07:52:40;;;;;;;;;;;;;;;15.98;34.72;98888.03;4415778;32;34290;-87
2023/04/13 07:55:08;;;;;;;;;;;;;;;15.70;35.58;98891.22;4413478;32;34163;-87
2023/04/13 07:57:41;;;;;;;;;;;;;;;15.67;36.06;98899.44;4404502;32;33373;-87
2023/04/13 08:00:15;;;;;;;;;;;;;;;15.89;35.56;98896.75;4400325;32;34141;-87
2023/04/13 08:02:48;;;;;;;;;;;;;;;15.59;35.44;98897.34;4390067;32;33295;-87
2023/04/13 08:05:18;;;;;;;;;;;;;;;15.35;35.91;98900.12;4413942;32;35819;-87
2023/04/13 08:07:50;;;;;;;;;;;;;;;15.19;35.52;98888.94;4386721;32;33610;-84
2023/04/13 08:10:19;;;;;;;;;;;;;;;15.87;35.68;98891.56;4398861;32;32632;-85
2023/04/13 08:12:48;;;;;;;;;;;;;;;15.62;35.70;98886.47;4399707;32;32901;-85
2023/04/13 08:15:18;;;;;;;;;;;;;;;15.40;36.00;98892.62;4357033;32;1634739;-85
2023/04/13 08:17:48;;;;;;;;;;;;;;;15.31;35.37;98894.19;4402059;32;32568;-85
2023/04/13 08:20:19;;;;;;;;;;;;;;;15.56;35.72;98886.94;4402136;32;33677;-85
2023/04/13 08:22:48;;;;;;;;;;;;;;;16.07;34.76;98887.28;4400914;32;32775;-85
2023/04/13 08:25:21;;;;;;;;;;;;;;;16.22;34.59;98881.69;4400369;32;32445;-85
2023/04/13 08:27:51;;;;;;;;;;;;;;;16.71;34.45;98888.28;4413383;32;34319;-85
2023/04/13 08:30:20;;;;;;;;;;;;;;;16.70;33.51;98878.63;4401658;32;33261;-85
2023/04/13 08:32:52;;;;;;;;;;;;;;;16.38;34.26;98887.47;4415207;32;34054;-85
2023/04/13 08:35:28;;;;;;;;;;;;;;;16.45;34.49;98890.47;4387683;32;32793;-85
2023/04/13 08:37:58;;;;;;;;;;;;;;;16.95;34.00;98888.09;4401574;32;33174;-85
2023/04/13 08:40:27;;;;;;;;;;;;;;;16.73;34.33;98883.72;4415073;32;33662;-85
2023/04/13 08:42:57;;;;;;;;;;;;;;;16.62;33.97;98880.13;4386853;32;33543;-85
2023/04/13 08:45:29;;;;;;;;;;;;;;;16.48;34.68;98883.09;4388725;32;32883;-85
2023/04/13 08:50:49;;;;;;;;;;;;;;;17.23;33.03;98883.91;4411979;32;33845;-85
2023/04/13 08:53:18;;;;;;;;;;;;;;;17.04;33.36;98877.53;4417296;32;34997;-85
2023/04/13 08:55:48;;;;;;;;;;;;;;;16.65;33.84;98877.19;4400554;32;34131;-85
2023/04/13 08:58:23;;;;;;;;;;;;;;;16.86;33.01;98873.75;4416238;32;32789;-85
2023/04/13 09:00:52;;;;;;;;;;;;;;;16.88;34.87;98879.78;4409874;32;33808;-85
2023/04/13 09:03:26;;;;;;;;;;;;;;;17.20;32.91;98862.88;4400376;32;32860;-85
2023/04/13 09:05:58;;;;;;;;;;;;;;;16.85;32.52;98869.34;4394288;32;34111;-85
2023/04/13 09:08:27;;;;;;;;;;;;;;;17.41;31.59;98867.19;4401547;32;31869;-85
2023/04/13 09:10:57;;;;;;;;;;;;;;;17.74;31.67;98864.41;4402018;32;34083;-85
2023/04/13 09:13:26;;;;;;;;;;;;;;;17.61;30.33;98868.13;4412191;32;33162;-85
2023/04/13 09:15:55;;;;;;;;;;;;;;;17.75;30.67;98860.75;4400914;32;33613;-86
2023/04/13 09:18:24;;;;;;;;;;;;;;;17.25;31.36;98852.63;4400074;32;32401;-85
2023/04/13 09:20:58;;;;;;;;;;;;;;;17.66;31.22;98862.41;4394018;32;32575;-85
2023/04/13 09:23:28;;;;;;;;;;;;;;;17.90;31.55;98856.75;4393810;32;33512;-85
2023/04/13 09:26:22;;;;;;;;;;;;;;;18.02;31.31;98858.31;4393864;32;34303;-85
2023/04/13 09:28:53;;;;;;;;;;;;;;;18.12;30.49;98864.50;4403989;32;33000;-85
2023/04/13 09:31:24;;;;;;;;;;;;;;;17.88;30.88;98872.03;4391789;32;33814;-85
2023/04/13 09:33:53;;;;;;;;;;;;;;;18.12;30.99;98856.50;4404436;32;34593;-84
2023/04/13 09:36:23;;;;;;;;;;;;;;;18.32;31.69;98865.37;4376798;32;32860;-90
2023/04/13 09:39:23;;;;;;;;;;;;;;;18.31;30.87;98857.50;4391944;32;33053;-86
2023/04/13 09:41:57;;;;;;;;;;;;;;;18.46;30.98;98858.78;4388967;32;32817;-85
2023/04/13 09:44:33;;;;;;;;;;;;;;;18.68;30.82;98855.88;4380486;32;32824;-84
2023/04/13 09:47:11;;;;;;;;;;;;;;;18.69;30.78;98851.34;4404630;32;35156;-88
2023/04/13 09:49:46;;;;;;;;;;;;;;;18.81;30.38;98866.28;4371506;32;32377;-87
2023/04/13 09:52:19;;;;;;;;;;;;;;;18.35;31.46;98861.59;4370648;32;32742;-87
2023/04/13 09:54:57;;;;;;;;;;;;;;;18.21;31.07;98862.00;4382078;32;32844;-87
2023/04/13 09:57:26;;;;;;;;;;;;;;;18.49;30.83;98845.16;4395571;32;33787;-87
2023/04/13 10:00:13;;;;;;;;;;;;;;;18.53;31.20;98846.56;4383342;32;32456;-87
2023/04/13 10:02:49;;;;;;;;;;;;;;;18.81;30.53;98844.03;4373714;32;30983;-86
2023/04/13 10:07:56;;;;;;;;;;;;;;;18.41;30.46;98848.50;4372539;32;32953;-87
2023/04/13 10:10:25;;;;;;;;;;;;;;;19.12;30.30;98853.56;4371728;32;31694;-87
2023/04/13 10:12:58;;;;;;;;;;;;;;;19.59;29.55;98850.03;4384547;32;33988;-87
2023/04/13 10:15:36;;;;;;;;;;;;;;;18.74;30.64;98861.62;4382134;32;33178;-88
2023/04/13 10:18:08;;;;;;;;;;;;;;;18.93;30.59;98853.59;4372639;32;33176;-87
2023/04/13 10:20:47;;;;;;;;;;;;;;;18.65;29.74;98849.91;4369441;32;33561;-87
2023/04/13 10:23:17;;;;;;;;;;;;;;;19.23;30.25;98849.00;4395875;32;34641;-87
2023/04/13 10:25:49;;;;;;;;;;;;;;;19.16;29.55;98857.63;4371254;32;31815;-87
2023/04/13 10:30:53;;;;;;;;;;;;;;;19.13;30.65;98854.38;4391552;32;31806;-87
2023/04/13 10:33:22;;;;;;;;;;;;;;;19.32;29.96;98842.78;4379760;32;32900;-87
2023/04/13 10:35:56;;;;;;;;;;;;;;;19.39;30.16;98843.91;4380560;32;33032;-87
2023/04/13 10:38:26;;;;;;;;;;;;;;;19.09;30.85;98848.50;4357937;32;34300;-87
2023/04/13 10:40:57;;;;;;;;;;;;;;;18.63;30.29;98855.41;4378950;32;33335;-87
2023/04/13 10:43:31;;;;;;;;;;;;;;;18.59;30.99;98848.66;4381429;32;34576;-87
2023/04/13 10:46:07;;;;;;;;;;;;;;;18.98;30.80;98855.84;4366489;32;32976;-88
2023/04/13 10:48:36;;;;;;;;;;;;;;;19.08;30.88;98846.78;4390553;32;32796;-87
2023/04/13 10:51:04;;;;;;;;;;;;;;;19.05;30.79;98841.75;4394572;32;33775;-86
2023/04/13 10:53:34;;;;;;;;;;;;;;;19.16;30.92;98841.56;4383631;32;32876;-87
2023/04/13 10:56:18;;;;;;;;;;;;;;;19.11;31.60;98837.66;4374901;32;32991;-88
2023/04/13 10:58:59;;;;;;;;;;;;;;;19.44;30.93;98836.28;4386959;32;35724;-87
2023/04/13 11:01:30;;;;;;;;;;;;;;;19.57;30.10;98839.47;4383532;32;33663;-87
2023/04/13 11:04:03;;;;;;;;;;;;;;;19.35;31.01;98826.44;4378302;32;32889;-87
2023/04/13 11:06:39;;;;;;;;;;;;;;;18.99;31.77;98826.28;4386329;32;35244;-87
2023/04/13 11:09:10;;;;;;;;;;;;;;;19.33;32.08;98812.37;4383084;32;33398;-88
2023/04/13 11:11:49;;;;;;;;;;;;;;;19.30;31.81;98826.03;4374595;32;33179;-87
2023/04/13 11:14:21;;;;;;;;;;;;;;;19.78;31.43;98825.03;4382839;32;33335;-88
2023/04/13 11:16:50;;;;;;;;;;;;;;;19.77;31.82;98818.00;4373310;32;33312;-88
2023/04/13 11:19:25;;;;;;;;;;;;;;;19.44;31.81;98823.72;4377337;32;33335;-88
2023/04/13 11:22:09;;;;;;;;;;;;;;;19.52;31.37;98817.66;4400016;32;33109;-88
2023/04/13 11:24:40;;;;;;;;;;;;;;;20.08;31.30;98808.62;4396154;32;33680;-87
2023/04/13 11:27:20;;;;;;;;;;;;;;;19.58;31.92;98806.34;4401184;32;33057;-87
2023/04/13 11:29:58;;;;;;;;;;;;;;;19.68;31.24;98806.31;4411005;32;30997;-87
2023/04/13 11:32:26;;;;;;;;;;;;;;;19.71;30.80;98810.56;4411909;32;32300;-87
2023/04/13 11:35:07;;;;;;;;;;;;;;;20.20;29.83;98804.72;4398758;32;34144;-87
2023/04/13 11:37:39;;;;;;;;;;;;;;;20.23;29.73;98798.22;4398812;32;32576;-87
2023/04/13 11:40:09;;;;;;;;;;;;;;;20.36;29.77;98798.66;4401225;32;34131;-86
2023/04/13 11:45:17;;;;;;;;;;;;;;;20.02;30.28;98803.03;4411276;32;33499;-87
2023/04/13 11:47:54;;;;;;;;;;;;;;;19.97;30.07;98799.94;4388866;32;32830;-89
2023/04/13 11:50:24;;;;;;;;;;;;;;;20.41;28.49;98798.19;4399281;32;32942;-87
2023/04/13 11:52:55;;;;;;;;;;;;;;;20.10;28.80;98797.75;4402808;32;32615;-87
2023/04/13 11:55:24;;;;;;;;;;;;;;;20.06;29.19;98788.34;4373894;32;34284;-87
2023/04/13 11:57:52;;;;;;;;;;;;;;;19.72;29.84;98791.66;4392153;32;33579;-87
2023/04/13 12:00:24;;;;;;;;;;;;;;;19.75;30.12;98794.03;4401552;32;34453;-87
2023/04/13 12:02:56;;;;;;;;;;;;;;;19.82;28.96;98794.28;4389381;32;32655;-86
2023/04/13 12:05:30;;;;;;;;;;;;;;;19.72;29.52;98794.31;4403355;32;34518;-86
2023/04/13 12:08:02;;;;;;;;;;;;;;;19.57;29.38;98788.59;4414327;32;33870;-87
2023/04/13 12:10:36;;;;;;;;;;;;;;;19.74;29.46;98788.81;4395970;32;33655;-86
2023/04/13 12:13:25;;;;;;;;;;;;;;;19.74;29.24;98775.41;4396298;32;33022;-87
2023/04/13 12:16:03;;;;;;;;;;;;;;;19.30;29.59;98777.88;4389564;32;32819;-86
2023/04/13 12:18:44;;;;;;;;;;;;;;;19.37;29.48;98777.16;4388665;32;33075;-86
2023/04/13 12:21:25;;;;;;;;;;;;;;;18.73;30.46;98767.19;4398534;32;33506;-87
2023/04/13 12:23:58;;;;;;;;;;;;;;;19.05;30.89;98772.19;4405984;32;33817;-87
2023/04/13 12:26:35;;;;;;;;;;;;;;;19.53;29.88;98765.78;4384967;32;34178;-87
2023/04/13 12:31:50;;;;;;;;;;;;;;;19.51;30.09;98766.91;4409074;32;34146;-87
2023/04/13 12:34:22;;;;;;;;;;;;;;;19.69;30.12;98747.25;4394587;32;34136;-87
2023/04/13 12:36:50;;;;;;;;;;;;;;;20.06;29.88;98748.12;4406962;32;33023;-87
2023/04/13 12:39:21;;;;;;;;;;;;;;;20.30;29.68;98752.88;4396901;32;35091;-87
2023/04/13 12:41:50;;;;;;;;;;;;;;;20.32;29.70;98753.56;4394012;32;34137;-87
2023/04/13 12:44:19;;;;;;;;;;;;;;;20.27;29.08;98753.19;4394158;32;33972;-87
2023/04/13 12:46:50;;;;;;;;;;;;;;;20.35;29.49;98746.06;4397244;32;32481;-87
2023/04/13 12:49:18;;;;;;;;;;;;;;;20.45;28.74;98745.97;4399761;32;34393;-87
2023/04/13 12:51:47;;;;;;;;;;;;;;;20.76;28.41;98734.84;4383921;32;34258;-86
2023/04/13 12:54:19;;;;;;;;;;;;;;;20.52;29.27;98743.56;4384673;32;32974;-87
2023/04/13 12:56:47;;;;;;;;;;;;;;;20.78;29.01;98730.97;4395091;32;32664;-86
2023/04/13 12:59:16;;;;;;;;;;;;;;;21.22;28.55;98728.19;4383194;32;34013;-87
2023/04/13 13:01:45;;;;;;;;;;;;;;;20.62;28.76;98731.72;4393668;32;32449;-87
2023/04/13 13:04:18;;;;;;;;;;;;;;;20.45;29.84;98738.75;4393453;32;33209;-87
2023/04/13 13:06:51;;;;;;;;;;;;;;;20.47;30.61;98733.28;4394353;32;32980;-86
2023/04/13 13:09:21;;;;;;;;;;;;;;;20.29;29.83;98740.47;4378872;32;34126;-86
2023/04/13 13:11:53;;;;;;;;;;;;;;;20.07;29.59;98733.72;4391385;32;34074;-86
2023/04/13 13:14:22;;;;;;;;;;;;;;;20.21;29.21;98728.66;4393926;32;32474;-86
2023/04/13 13:16:50;;;;;;;;;;;;;;;20.11;29.51;98733.28;4397693;32;34798;-87
2023/04/13 13:22:00;;;;;;;;;;;;;;;20.65;29.74;98726.06;4398595;32;32828;-86
2023/04/13 13:24:29;;;;;;;;;;;;;;;20.45;30.02;98737.91;4395389;32;32515;-87
2023/04/13 13:27:00;;;;;;;;;;;;;;;19.84;30.00;98734.19;4383325;32;33298;-86